createdAt,value
2019-04-23T00:00:20.479Z,21.67
2019-04-23T00:03:13.977Z,21.54
2019-04-23T00:10:53.950Z,21.30
2019-04-23T00:13:09.058Z,21.30
2019-04-23T00:16:03.015Z,21.12
2019-04-23T00:21:05.832Z,20.82
2019-04-23T00:23:35.240Z,20.86
2019-04-23T00:26:12.847Z,20.65
2019-04-23T00:28:41.543Z,20.62
2019-04-23T00:33:57.500Z,20.61
2019-04-23T00:36:19.887Z,20.49
2019-04-23T00:38:46.939Z,20.43
2019-04-23T00:41:20.830Z,20.50
2019-04-23T00:43:51.166Z,20.58
2019-04-23T00:46:23.420Z,20.61
2019-04-23T00:48:59.178Z,20.83
2019-04-23T00:51:27.719Z,20.83
2019-04-23T00:53:51.447Z,20.97
2019-04-23T00:56:38.672Z,20.98
2019-04-23T00:58:56.456Z,21.19
2019-04-23T01:03:57.860Z,21.54
2019-04-23T01:06:47.655Z,21.57
2019-04-23T01:09:06.853Z,21.33
2019-04-23T01:14:01.044Z,21.18
2019-04-23T01:16:32.945Z,21.20
2019-04-23T01:19:20.649Z,21.16
2019-04-23T01:21:26.516Z,21.24
2019-04-23T01:24:14.147Z,21.46
2019-04-23T01:27:39.295Z,21.64
2019-04-23T01:29:58.498Z,21.46
2019-04-23T01:32:32.170Z,21.72
2019-04-23T01:35:06.591Z,21.58
2019-04-23T01:37:36.513Z,21.59
2019-04-23T01:40:07.810Z,21.55
2019-04-23T01:42:42.189Z,21.61
2019-04-23T01:45:13.265Z,21.60
2019-04-23T01:47:43.836Z,21.46
2019-04-23T01:52:48.235Z,21.58
2019-04-23T01:55:19.888Z,21.59
2019-04-23T01:57:51.334Z,21.55
2019-04-23T02:02:49.627Z,21.51
2019-04-23T02:05:23.206Z,21.59
2019-04-23T02:07:58.439Z,21.89
2019-04-23T02:10:29.533Z,21.90
2019-04-23T02:12:56.425Z,22.23
2019-04-23T02:15:26.510Z,22.35
2019-04-23T02:17:58.736Z,22.57
2019-04-23T02:20:29.306Z,22.57
2019-04-23T02:26:01.276Z,22.81
2019-04-23T02:50:57.392Z,22.69
2019-04-23T02:53:45.538Z,22.67
2019-04-23T02:58:54.389Z,22.71
2019-04-23T03:01:19.549Z,22.69
2019-04-23T03:03:42.753Z,22.73
2019-04-23T03:11:20.004Z,22.79
2019-04-23T03:16:29.443Z,22.88
2019-04-23T03:19:01.562Z,22.73
2019-04-23T03:21:42.598Z,22.80
2019-04-23T03:24:20.801Z,22.80
2019-04-23T03:27:15.182Z,22.94
2019-04-23T03:29:40.459Z,22.87
2019-04-23T03:37:23.519Z,22.94
2019-04-23T03:39:55.078Z,22.84
2019-04-23T03:44:47.857Z,22.88
2019-04-23T03:47:13.888Z,23.04
2019-04-23T03:57:18.221Z,23.36
2019-04-23T04:02:37.695Z,23.59
2019-04-23T04:07:30.782Z,23.70
2019-04-23T04:09:52.084Z,23.73
2019-04-23T04:17:35.236Z,23.60
2019-04-23T04:20:20.252Z,23.60
2019-04-23T04:22:37.804Z,23.78
2019-04-23T04:27:45.617Z,24.33
2019-04-23T04:30:10.782Z,24.25
2019-04-23T04:32:53.386Z,24.30
2019-04-23T04:35:22.373Z,24.37
2019-04-23T04:42:59.026Z,24.47
2019-04-23T04:45:30.380Z,24.45
2019-04-23T04:47:44.714Z,24.68
2019-04-23T04:50:25.947Z,24.56
2019-04-23T04:55:28.362Z,24.61
2019-04-23T04:58:00.503Z,24.64
2019-04-23T05:00:42.977Z,24.77
2019-04-23T05:06:01.328Z,24.73
2019-04-23T05:08:15.957Z,24.73
2019-04-23T05:13:32.023Z,24.84
2019-04-23T05:15:44.797Z,24.76
2019-04-23T05:18:39.923Z,24.87
2019-04-23T05:21:01.891Z,24.82
2019-04-23T05:23:43.057Z,24.88
2019-04-23T05:26:02.854Z,24.97
2019-04-23T05:28:40.993Z,24.89
2019-04-23T05:31:12.373Z,24.84
2019-04-23T05:33:45.167Z,24.87
2019-04-23T05:41:20.007Z,24.78
2019-04-23T05:43:46.475Z,24.67
2019-04-23T05:46:25.076Z,24.69
2019-04-23T05:48:58.034Z,24.63
2019-04-23T05:53:50.957Z,24.73
2019-04-23T05:56:24.289Z,24.62
2019-04-23T05:58:58.216Z,24.55
2019-04-23T06:01:51.169Z,24.53
2019-04-23T06:09:12.751Z,24.51
2019-04-23T06:14:13.459Z,24.41
2019-04-23T06:16:41.856Z,24.20
2019-04-23T06:19:15.791Z,24.15
2019-04-23T06:21:59.864Z,24.03
2019-04-23T06:24:24.925Z,23.70
2019-04-23T06:26:51.630Z,23.59
2019-04-23T06:29:28.591Z,23.57
2019-04-23T06:31:55.295Z,23.66
2019-04-23T06:36:57.477Z,23.73
2019-04-23T06:39:38.172Z,23.52
2019-04-23T06:42:00.454Z,23.56
2019-04-23T06:44:44.978Z,23.57
2019-04-23T06:47:16.771Z,23.36
2019-04-23T06:49:54.517Z,23.36
2019-04-23T06:52:18.979Z,23.29
2019-04-23T06:54:56.571Z,23.09
2019-04-23T06:57:23.786Z,22.94
2019-04-23T06:59:55.564Z,22.91
2019-04-23T07:02:25.894Z,22.86
2019-04-23T07:05:03.441Z,22.76
2019-04-23T07:07:43.055Z,22.88
2019-04-23T07:09:58.018Z,22.61
2019-04-23T07:12:38.573Z,22.50
2019-04-23T07:17:29.023Z,22.61
2019-04-23T07:20:07.128Z,22.56
2019-04-23T07:22:34.870Z,22.44
2019-04-23T07:25:12.803Z,22.58
2019-04-23T07:27:43.083Z,22.48
2019-04-23T07:30:23.753Z,22.55
2019-04-23T07:32:52.981Z,22.31
2019-04-23T07:35:16.051Z,22.15
2019-04-23T07:38:08.286Z,22.24
2019-04-23T07:43:22.535Z,22.03
2019-04-23T07:46:20.260Z,22.00
2019-04-23T07:48:43.955Z,21.85
2019-04-23T07:51:21.024Z,21.80
2019-04-23T07:54:01.293Z,21.45
2019-04-23T07:56:45.623Z,21.31
2019-04-23T07:58:52.535Z,21.21
2019-04-23T08:01:32.128Z,20.69
2019-04-23T08:04:01.911Z,20.57
2019-04-23T08:06:41.310Z,20.29
2019-04-23T08:09:10.925Z,20.12
2019-04-23T08:14:08.425Z,19.64
2019-04-23T08:16:36.833Z,19.66
2019-04-23T08:19:25.505Z,19.14
2019-04-23T08:21:58.193Z,19.01
2019-04-23T08:24:47.972Z,18.91
2019-04-23T08:27:18.314Z,18.85
2019-04-23T08:29:43.956Z,18.50
2019-04-23T08:32:19.600Z,18.03
2019-04-23T08:34:58.387Z,17.23
2019-04-23T08:37:38.006Z,16.52
2019-04-23T08:40:04.367Z,16.43
2019-04-23T08:42:49.620Z,16.38
2019-04-23T08:48:00.718Z,16.58
2019-04-23T08:50:35.540Z,17.13
2019-04-23T08:53:19.991Z,17.19
2019-04-23T08:55:38.430Z,16.93
2019-04-23T08:58:06.111Z,16.52
2019-04-23T09:00:49.866Z,16.78
2019-04-23T09:03:20.350Z,16.58
2019-04-23T09:08:25.279Z,16.60
2019-04-23T09:10:55.834Z,16.73
2019-04-23T09:15:58.255Z,16.54
2019-04-23T09:18:27.835Z,16.62
2019-04-23T09:21:05.431Z,16.85
2019-04-23T09:26:05.511Z,16.65
2019-04-23T09:31:45.734Z,16.69
2019-04-23T09:34:07.252Z,16.38
2019-04-23T09:36:45.319Z,16.61
2019-04-23T09:39:14.925Z,16.84
2019-04-23T09:41:37.273Z,16.77
2019-04-23T09:47:24.425Z,17.24
2019-04-23T09:49:46.766Z,17.38
2019-04-23T09:52:21.966Z,17.72
2019-04-23T09:54:57.749Z,17.65
2019-04-23T09:57:15.948Z,17.63
2019-04-23T10:00:10.262Z,17.68
2019-04-23T10:02:24.879Z,17.68
2019-04-23T10:04:48.602Z,17.98
2019-04-23T10:07:17.963Z,18.12
2019-04-23T10:09:36.579Z,18.08
2019-04-23T10:12:07.335Z,18.19
2019-04-23T10:14:38.656Z,18.10
2019-04-23T10:17:10.257Z,18.07
2019-04-23T10:19:40.767Z,17.99
2019-04-23T10:22:11.467Z,18.25
2019-04-23T10:24:43.437Z,18.37
2019-04-23T10:27:14.755Z,18.49
2019-04-23T10:29:45.942Z,18.72
2019-04-23T10:32:17.572Z,18.73
2019-04-23T10:34:58.101Z,18.85
2019-04-23T10:37:31.870Z,19.15
2019-04-23T10:39:58.284Z,19.28
2019-04-23T10:42:24.694Z,19.21
2019-04-23T10:45:20.465Z,19.44
2019-04-23T10:51:17.377Z,19.77
2019-04-23T10:53:50.613Z,19.99
2019-04-23T10:56:36.167Z,19.91
2019-04-23T10:58:58.983Z,20.08
2019-04-23T11:01:31.564Z,20.05
2019-04-23T11:04:32.922Z,19.97
2019-04-23T11:06:50.343Z,19.89
2019-04-23T11:09:38.628Z,19.75
2019-04-23T11:11:52.415Z,19.97
2019-04-23T11:14:25.342Z,20.25
2019-04-23T11:19:39.969Z,19.98
2019-04-23T11:22:21.037Z,19.88
2019-04-23T11:27:06.503Z,20.16
2019-04-23T11:32:31.330Z,19.87
2019-04-23T11:35:08.749Z,19.81
2019-04-23T11:39:44.953Z,19.64
2019-04-23T11:42:19.622Z,19.39
2019-04-23T11:44:49.072Z,19.38
2019-04-23T11:48:02.537Z,19.70
2019-04-23T11:50:01.493Z,19.97
2019-04-23T11:52:36.070Z,19.77
2019-04-23T11:55:09.420Z,19.64
2019-04-23T12:00:05.552Z,19.25
2019-04-23T12:02:43.401Z,19.15
2019-04-23T12:05:32.086Z,18.84
2019-04-23T12:07:57.586Z,18.59
2019-04-23T12:10:44.473Z,18.21
2019-04-23T12:13:08.120Z,17.24
2019-04-23T12:15:41.750Z,17.00
2019-04-23T12:18:10.876Z,16.46
2019-04-23T12:20:35.799Z,16.04
2019-04-23T12:23:23.988Z,15.50
2019-04-23T12:26:06.648Z,15.47
2019-04-23T12:28:26.395Z,15.37
2019-04-23T12:30:59.318Z,15.64
2019-04-23T12:33:28.072Z,15.85
2019-04-23T12:35:59.162Z,16.18
2019-04-23T12:38:26.987Z,16.46
2019-04-23T12:40:56.418Z,17.16
2019-04-23T12:43:43.586Z,17.38
2019-04-23T12:45:59.511Z,17.71
2019-04-23T12:50:58.340Z,18.17
2019-04-23T12:56:12.907Z,18.26
2019-04-23T12:58:34.117Z,18.55
2019-04-23T13:01:13.492Z,18.44
2019-04-23T13:03:39.226Z,18.30
2019-04-23T13:06:17.039Z,18.17
2019-04-23T13:13:53.512Z,16.56
2019-04-23T13:16:39.908Z,16.45
2019-04-23T13:18:58.142Z,16.30
2019-04-23T13:24:11.433Z,16.53
2019-04-23T13:26:42.282Z,16.55
2019-04-23T13:29:18.563Z,16.79
2019-04-23T13:31:41.365Z,16.93
2019-04-23T13:34:22.915Z,17.18
2019-04-23T13:36:53.942Z,17.37
2019-04-23T13:39:24.499Z,17.90
2019-04-23T13:41:52.590Z,17.98
2019-04-23T13:44:39.477Z,17.81
2019-04-23T13:47:10.590Z,18.12
2019-04-23T13:49:39.007Z,18.33
2019-04-23T13:52:24.263Z,18.34
2019-04-23T14:02:24.019Z,17.84
2019-04-23T14:05:02.613Z,17.59
2019-04-23T14:07:38.415Z,17.33
2019-04-23T14:10:11.787Z,17.15
2019-04-23T14:13:01.892Z,17.40
2019-04-23T14:15:19.555Z,17.33
2019-04-23T14:17:59.976Z,17.39
2019-04-23T14:23:05.301Z,17.80
2019-04-23T14:25:16.543Z,18.12
2019-04-23T14:27:56.582Z,18.60
2019-04-23T14:30:34.777Z,18.89
2019-04-23T14:33:02.780Z,19.23
2019-04-23T14:38:15.872Z,19.49
2019-04-23T14:40:47.117Z,19.74
2019-04-23T14:43:20.146Z,20.11
2019-04-23T14:45:59.725Z,20.23
2019-04-23T14:48:14.897Z,20.34
2019-04-23T14:50:54.778Z,20.54
2019-04-23T14:53:33.348Z,20.63
2019-04-23T14:58:31.079Z,20.62
2019-04-23T15:01:16.111Z,20.72
2019-04-23T15:03:44.436Z,20.80
2019-04-23T15:06:46.839Z,20.91
2019-04-23T15:13:44.512Z,20.92
2019-04-23T15:16:22.385Z,20.70
2019-04-23T15:27:21.514Z,20.99
2019-04-23T15:28:43.761Z,21.15
2019-04-23T15:31:44.731Z,21.03
2019-04-23T15:34:18.982Z,21.00
2019-04-23T15:39:16.926Z,20.78
2019-04-23T15:41:49.595Z,20.85
2019-04-23T15:44:13.501Z,21.00
2019-04-23T15:46:49.351Z,21.01
2019-04-23T15:49:19.845Z,20.66
2019-04-23T15:54:25.398Z,20.28
2019-04-23T15:56:54.731Z,20.10
2019-04-23T16:01:41.926Z,19.19
2019-04-23T16:04:06.070Z,19.02
2019-04-23T16:06:38.492Z,18.99
2019-04-23T16:09:40.255Z,19.23
2019-04-23T16:12:04.752Z,19.28
2019-04-23T16:14:48.025Z,19.03
2019-04-23T16:17:20.943Z,18.96
2019-04-23T16:20:19.044Z,18.82
2019-04-23T16:22:38.284Z,18.48
2019-04-23T16:27:44.323Z,18.17
2019-04-23T16:30:40.871Z,18.17
2019-04-23T16:32:58.658Z,18.44
2019-04-23T16:35:34.577Z,18.46
2019-04-23T16:38:12.814Z,18.82
2019-04-23T16:40:35.058Z,19.24
2019-04-23T16:48:24.034Z,20.62
2019-04-23T16:50:57.851Z,21.25
2019-04-23T16:53:17.876Z,21.38
2019-04-23T16:56:01.571Z,21.37
2019-04-23T16:58:36.587Z,21.56
2019-04-23T17:05:56.829Z,22.00
2019-04-23T17:08:42.767Z,22.10
2019-04-23T17:11:10.153Z,22.61
2019-04-23T17:13:34.584Z,22.77
2019-04-23T17:21:10.410Z,23.08
2019-04-23T17:26:20.585Z,23.26
2019-04-23T17:28:49.509Z,23.45
2019-04-23T17:31:34.521Z,23.54
2019-04-23T17:36:57.932Z,24.04
2019-04-23T17:39:07.836Z,24.13
2019-04-23T17:41:59.643Z,24.27
2019-04-23T17:44:24.258Z,24.38
2019-04-23T17:46:54.259Z,24.67
2019-04-23T17:49:22.197Z,24.59
2019-04-23T17:51:57.510Z,25.37
2019-04-23T18:02:49.933Z,26.61
2019-04-23T18:07:43.674Z,27.30
2019-04-23T18:10:17.863Z,27.54
2019-04-23T18:15:05.020Z,28.00
2019-04-23T18:17:43.318Z,28.04
2019-04-23T18:20:16.285Z,28.38
2019-04-23T18:22:53.980Z,28.51
2019-04-23T18:25:26.142Z,28.78
2019-04-23T18:27:54.229Z,29.09
2019-04-23T18:31:10.338Z,29.28
2019-04-23T18:33:51.323Z,29.43
2019-04-23T18:35:47.574Z,29.74
2019-04-23T18:38:29.168Z,29.98
2019-04-23T18:41:02.606Z,29.83
2019-04-23T18:46:02.586Z,30.25
2019-04-23T18:48:44.163Z,30.36
2019-04-23T18:53:43.477Z,30.65
2019-04-23T19:01:16.015Z,30.74
2019-04-23T19:06:30.404Z,30.95
2019-04-23T19:11:59.406Z,31.23
2019-04-23T19:14:32.162Z,31.32
2019-04-23T19:17:30.415Z,31.52
2019-04-23T19:19:36.791Z,31.64
2019-04-23T19:22:19.381Z,31.69
2019-04-23T19:24:31.379Z,31.78
2019-04-23T19:32:14.384Z,32.08
2019-04-23T19:34:40.696Z,32.16
2019-04-23T19:39:46.968Z,32.48
2019-04-23T19:42:11.917Z,32.55
2019-04-23T19:44:47.491Z,32.74
2019-04-23T19:47:17.232Z,33.00
2019-04-23T19:49:50.235Z,33.07
2019-04-23T19:52:20.268Z,33.14
2019-04-23T19:54:55.032Z,33.24
2019-04-23T19:57:42.547Z,33.37
2019-04-23T20:02:38.641Z,33.64
2019-04-23T20:04:55.445Z,33.73
2019-04-23T20:07:43.133Z,33.85
2019-04-23T20:09:56.891Z,33.94
2019-04-23T20:12:40.845Z,34.01
2019-04-23T20:14:59.975Z,34.17
2019-04-23T20:20:08.783Z,34.30
2019-04-23T20:22:47.312Z,34.18
2019-04-23T20:25:38.165Z,34.23
2019-04-23T20:27:54.253Z,34.36
2019-04-23T20:33:27.916Z,34.51
2019-04-23T20:35:24.348Z,34.64
2019-04-23T20:43:14.997Z,34.98
2019-04-23T20:45:38.932Z,35.09
2019-04-23T20:48:09.395Z,35.27
2019-04-23T20:50:34.173Z,35.32
2019-04-23T20:53:00.016Z,35.42
2019-04-23T20:55:52.893Z,35.55
2019-04-23T20:58:03.156Z,35.80
2019-04-23T21:01:07.611Z,35.99
2019-04-23T21:03:30.869Z,36.16
2019-04-23T21:05:43.055Z,36.22
2019-04-23T21:08:30.698Z,36.31
2019-04-23T21:10:51.040Z,36.52
2019-04-23T21:13:43.054Z,36.64
2019-04-23T21:15:52.714Z,36.72
2019-04-23T21:18:32.984Z,36.81
2019-04-23T21:20:56.116Z,37.00
2019-04-23T21:23:37.439Z,37.13
2019-04-23T21:26:07.883Z,37.37
2019-04-23T21:28:40.049Z,37.23
2019-04-23T21:31:06.534Z,37.20
2019-04-23T21:33:43.844Z,37.21
2019-04-23T21:36:25.353Z,37.33
2019-04-23T21:39:15.363Z,37.45
2019-04-23T21:44:18.132Z,37.77
2019-04-23T21:46:54.172Z,37.81
2019-04-23T21:49:25.247Z,37.86
2019-04-23T21:51:53.815Z,37.79
2019-04-23T21:54:21.158Z,37.77
2019-04-23T21:59:17.567Z,37.66
2019-04-23T22:01:55.930Z,37.64
2019-04-23T22:12:05.191Z,37.84
2019-04-23T22:14:33.433Z,37.93
2019-04-23T22:17:09.608Z,37.98
2019-04-23T22:19:29.518Z,38.05
2019-04-23T22:22:22.165Z,38.07
2019-04-23T22:24:33.160Z,38.12
2019-04-23T22:27:06.524Z,38.17
2019-04-23T22:32:05.533Z,38.23
2019-04-23T22:39:45.729Z,38.30
2019-04-23T22:45:02.982Z,38.23
2019-04-23T22:47:13.591Z,38.44
2019-04-23T22:50:05.825Z,38.58
2019-04-23T22:52:23.321Z,38.57
2019-04-23T22:57:39.501Z,38.68
2019-04-23T23:00:11.224Z,38.78
2019-04-23T23:07:48.965Z,39.05
2019-04-23T23:10:12.834Z,38.96
2019-04-23T23:12:52.810Z,39.09
2019-04-23T23:15:15.935Z,39.11
2019-04-23T23:17:52.643Z,39.20
2019-04-23T23:22:52.284Z,39.51
2019-04-23T23:25:19.145Z,39.53
2019-04-23T23:27:54.270Z,39.49
2019-04-23T23:32:51.849Z,39.59
2019-04-23T23:35:24.543Z,39.72
2019-04-23T23:37:49.898Z,39.84
2019-04-23T23:40:20.318Z,40.03
2019-04-23T23:43:03.686Z,40.09
2019-04-23T23:48:10.103Z,40.25
2019-04-23T23:50:25.523Z,40.40
2019-04-23T23:53:58.545Z,40.50
2019-04-23T23:55:27.719Z,40.50
2019-04-23T23:58:06.769Z,40.53
